sensor_id;sensor_type;location;lat;lon;timestamp;P1;durP1;ratioP1;P2;durP2;ratioP2
803;SDS011;25687;49.976;8.240;2023-02-15T00:00:51;72.20;;;31.77;;
803;SDS011;25687;49.976;8.240;2023-02-15T00:03:16;79.73;;;33.90;;
803;SDS011;25687;49.976;8.240;2023-02-15T00:05:41;66.07;;;31.43;;
803;SDS011;25687;49.976;8.240;2023-02-15T00:08:06;101.17;;;32.43;;
803;SDS011;25687;49.976;8.240;2023-02-15T00:10:32;71.73;;;32.17;;
803;SDS011;25687;49.976;8.240;2023-02-15T00:12:57;72.73;;;31.97;;
803;SDS011;25687;49.976;8.240;2023-02-15T00:15:25;66.47;;;31.13;;
803;SDS011;25687;49.976;8.240;2023-02-15T00:17:50;63.77;;;32.10;;
803;SDS011;25687;49.976;8.240;2023-02-15T00:20:16;93.27;;;32.03;;
803;SDS011;25687;49.976;8.240;2023-02-15T00:22:41;65.53;;;31.40;;
803;SDS011;25687;49.976;8.240;2023-02-15T00:25:06;65.97;;;31.47;;
803;SDS011;25687;49.976;8.240;2023-02-15T00:27:32;56.63;;;30.40;;
803;SDS011;25687;49.976;8.240;2023-02-15T00:29:58;73.07;;;33.67;;
803;SDS011;25687;49.976;8.240;2023-02-15T00:32:23;98.03;;;32.07;;
803;SDS011;25687;49.976;8.240;2023-02-15T00:34:48;58.47;;;30.40;;
803;SDS011;25687;49.976;8.240;2023-02-15T00:37:14;59.50;;;31.07;;
803;SDS011;25687;49.976;8.240;2023-02-15T00:39:39;115.60;;;30.37;;
803;SDS011;25687;49.976;8.240;2023-02-15T00:42:04;89.27;;;31.50;;
803;SDS011;25687;49.976;8.240;2023-02-15T00:44:29;132.07;;;33.17;;
803;SDS011;25687;49.976;8.240;2023-02-15T00:46:55;170.50;;;33.87;;
803;SDS011;25687;49.976;8.240;2023-02-15T00:49:20;106.97;;;31.37;;
803;SDS011;25687;49.976;8.240;2023-02-15T00:51:45;159.33;;;33.17;;
803;SDS011;25687;49.976;8.240;2023-02-15T00:54:11;130.80;;;31.60;;
803;SDS011;25687;49.976;8.240;2023-02-15T00:56:36;172.07;;;35.97;;
803;SDS011;25687;49.976;8.240;2023-02-15T00:59:01;118.73;;;32.43;;
803;SDS011;25687;49.976;8.240;2023-02-15T01:01:27;181.10;;;33.70;;
803;SDS011;25687;49.976;8.240;2023-02-15T01:03:52;124.63;;;32.10;;
803;SDS011;25687;49.976;8.240;2023-02-15T01:06:18;191.20;;;35.00;;
803;SDS011;25687;49.976;8.240;2023-02-15T01:08:44;90.40;;;31.63;;
803;SDS011;25687;49.976;8.240;2023-02-15T01:11:11;177.07;;;33.30;;
803;SDS011;25687;49.976;8.240;2023-02-15T01:13:39;179.60;;;33.40;;
803;SDS011;25687;49.976;8.240;2023-02-15T01:16:05;190.03;;;33.83;;
803;SDS011;25687;49.976;8.240;2023-02-15T01:18:31;118.87;;;32.13;;
803;SDS011;25687;49.976;8.240;2023-02-15T01:20:57;111.47;;;32.77;;
803;SDS011;25687;49.976;8.240;2023-02-15T01:23:23;137.80;;;32.83;;
803;SDS011;25687;49.976;8.240;2023-02-15T01:25:48;114.13;;;35.83;;
803;SDS011;25687;49.976;8.240;2023-02-15T01:28:14;132.93;;;30.63;;
803;SDS011;25687;49.976;8.240;2023-02-15T01:30:39;245.93;;;34.90;;
803;SDS011;25687;49.976;8.240;2023-02-15T01:33:05;217.20;;;34.90;;
803;SDS011;25687;49.976;8.240;2023-02-15T01:35:30;242.90;;;33.03;;
803;SDS011;25687;49.976;8.240;2023-02-15T01:37:56;215.00;;;34.37;;
803;SDS011;25687;49.976;8.240;2023-02-15T01:40:22;173.23;;;36.20;;
803;SDS011;25687;49.976;8.240;2023-02-15T01:42:54;335.80;;;35.77;;
803;SDS011;25687;49.976;8.240;2023-02-15T01:45:22;213.17;;;35.10;;
803;SDS011;25687;49.976;8.240;2023-02-15T01:47:54;356.33;;;39.57;;
803;SDS011;25687;49.976;8.240;2023-02-15T01:52:55;307.00;;;38.47;;
803;SDS011;25687;49.976;8.240;2023-02-15T01:55:27;154.87;;;35.10;;
803;SDS011;25687;49.976;8.240;2023-02-15T01:57:57;329.97;;;40.47;;
803;SDS011;25687;49.976;8.240;2023-02-15T02:00:22;302.50;;;38.87;;
803;SDS011;25687;49.976;8.240;2023-02-15T02:05:35;222.93;;;38.40;;
803;SDS011;25687;49.976;8.240;2023-02-15T02:08:02;374.97;;;42.27;;
803;SDS011;25687;49.976;8.240;2023-02-15T02:10:27;215.60;;;37.13;;
803;SDS011;25687;49.976;8.240;2023-02-15T02:12:54;151.53;;;35.90;;
803;SDS011;25687;49.976;8.240;2023-02-15T02:15:23;263.87;;;36.30;;
803;SDS011;25687;49.976;8.240;2023-02-15T02:20:38;204.57;;;34.87;;
803;SDS011;25687;49.976;8.240;2023-02-15T02:23:28;435.93;;;41.93;;
803;SDS011;25687;49.976;8.240;2023-02-15T02:32:00;319.03;;;40.57;;
803;SDS011;25687;49.976;8.240;2023-02-15T02:37:30;274.00;;;37.53;;
803;SDS011;25687;49.976;8.240;2023-02-15T02:40:10;299.90;;;36.83;;
803;SDS011;25687;49.976;8.240;2023-02-15T02:43:25;323.20;;;39.80;;
803;SDS011;25687;49.976;8.240;2023-02-15T02:45:43;182.43;;;34.37;;
803;SDS011;25687;49.976;8.240;2023-02-15T02:48:27;263.13;;;36.40;;
803;SDS011;25687;49.976;8.240;2023-02-15T02:50:56;167.63;;;35.63;;
803;SDS011;25687;49.976;8.240;2023-02-15T02:53:21;177.57;;;35.47;;
803;SDS011;25687;49.976;8.240;2023-02-15T02:59:42;237.43;;;37.73;;
803;SDS011;25687;49.976;8.240;2023-02-15T03:02:08;249.67;;;40.47;;
803;SDS011;25687;49.976;8.240;2023-02-15T03:04:39;116.73;;;34.70;;
803;SDS011;25687;49.976;8.240;2023-02-15T03:07:14;358.27;;;40.23;;
803;SDS011;25687;49.976;8.240;2023-02-15T03:09:47;322.83;;;40.93;;
803;SDS011;25687;49.976;8.240;2023-02-15T03:12:20;190.03;;;32.50;;
803;SDS011;25687;49.976;8.240;2023-02-15T03:14:51;174.90;;;34.67;;
803;SDS011;25687;49.976;8.240;2023-02-15T03:17:19;233.70;;;36.77;;
803;SDS011;25687;49.976;8.240;2023-02-15T03:19:47;352.57;;;40.03;;
803;SDS011;25687;49.976;8.240;2023-02-15T03:22:17;314.80;;;42.27;;
803;SDS011;25687;49.976;8.240;2023-02-15T03:25:01;462.93;;;45.67;;
803;SDS011;25687;49.976;8.240;2023-02-15T03:27:32;340.27;;;42.43;;
803;SDS011;25687;49.976;8.240;2023-02-15T03:30:03;305.70;;;40.13;;
803;SDS011;25687;49.976;8.240;2023-02-15T03:32:30;117.93;;;34.40;;
803;SDS011;25687;49.976;8.240;2023-02-15T03:34:58;207.97;;;36.57;;
803;SDS011;25687;49.976;8.240;2023-02-15T03:42:45;223.20;;;37.37;;
803;SDS011;25687;49.976;8.240;2023-02-15T03:45:21;199.33;;;36.90;;
803;SDS011;25687;49.976;8.240;2023-02-15T03:47:53;173.47;;;35.97;;
803;SDS011;25687;49.976;8.240;2023-02-15T03:50:24;317.13;;;38.73;;
803;SDS011;25687;49.976;8.240;2023-02-15T03:53:11;144.37;;;33.93;;
803;SDS011;25687;49.976;8.240;2023-02-15T03:55:40;185.43;;;34.70;;
803;SDS011;25687;49.976;8.240;2023-02-15T03:58:05;103.27;;;32.43;;
803;SDS011;25687;49.976;8.240;2023-02-15T04:00:51;148.30;;;35.50;;
803;SDS011;25687;49.976;8.240;2023-02-15T04:03:45;143.17;;;34.47;;
803;SDS011;25687;49.976;8.240;2023-02-15T04:06:17;89.40;;;35.37;;
803;SDS011;25687;49.976;8.240;2023-02-15T04:08:42;92.87;;;33.77;;
803;SDS011;25687;49.976;8.240;2023-02-15T04:11:26;86.83;;;31.40;;
803;SDS011;25687;49.976;8.240;2023-02-15T04:13:51;142.77;;;34.50;;
803;SDS011;25687;49.976;8.240;2023-02-15T04:16:21;100.37;;;34.27;;
803;SDS011;25687;49.976;8.240;2023-02-15T04:18:49;283.47;;;38.53;;
803;SDS011;25687;49.976;8.240;2023-02-15T04:21:33;269.90;;;40.93;;
803;SDS011;25687;49.976;8.240;2023-02-15T04:24:17;112.53;;;34.40;;
803;SDS011;25687;49.976;8.240;2023-02-15T04:27:02;157.30;;;32.73;;
803;SDS011;25687;49.976;8.240;2023-02-15T04:29:28;140.33;;;32.63;;
803;SDS011;25687;49.976;8.240;2023-02-15T04:31:54;83.37;;;29.50;;
803;SDS011;25687;49.976;8.240;2023-02-15T04:34:21;140.00;;;31.27;;
803;SDS011;25687;49.976;8.240;2023-02-15T04:36:47;72.37;;;30.63;;
803;SDS011;25687;49.976;8.240;2023-02-15T04:39:13;85.67;;;29.83;;
803;SDS011;25687;49.976;8.240;2023-02-15T04:41:39;87.63;;;30.37;;
803;SDS011;25687;49.976;8.240;2023-02-15T04:44:05;54.67;;;28.73;;
803;SDS011;25687;49.976;8.240;2023-02-15T04:46:30;150.90;;;32.73;;
803;SDS011;25687;49.976;8.240;2023-02-15T04:48:56;70.83;;;30.23;;
803;SDS011;25687;49.976;8.240;2023-02-15T04:51:21;179.30;;;32.43;;
803;SDS011;25687;49.976;8.240;2023-02-15T04:53:46;116.80;;;31.13;;
803;SDS011;25687;49.976;8.240;2023-02-15T04:56:12;155.60;;;31.40;;
803;SDS011;25687;49.976;8.240;2023-02-15T04:58:37;202.60;;;33.83;;
803;SDS011;25687;49.976;8.240;2023-02-15T05:01:05;154.70;;;30.30;;
803;SDS011;25687;49.976;8.240;2023-02-15T05:03:31;135.00;;;33.27;;
803;SDS011;25687;49.976;8.240;2023-02-15T05:05:56;160.93;;;33.27;;
803;SDS011;25687;49.976;8.240;2023-02-15T05:08:22;134.43;;;30.77;;
803;SDS011;25687;49.976;8.240;2023-02-15T05:11:10;129.57;;;33.07;;
803;SDS011;25687;49.976;8.240;2023-02-15T05:13:36;181.43;;;30.23;;
803;SDS011;25687;49.976;8.240;2023-02-15T05:16:01;67.77;;;29.63;;
803;SDS011;25687;49.976;8.240;2023-02-15T05:18:26;53.50;;;28.00;;
803;SDS011;25687;49.976;8.240;2023-02-15T05:20:51;135.17;;;31.67;;
803;SDS011;25687;49.976;8.240;2023-02-15T05:23:17;73.50;;;27.17;;
803;SDS011;25687;49.976;8.240;2023-02-15T05:25:46;74.43;;;27.27;;
803;SDS011;25687;49.976;8.240;2023-02-15T05:28:32;77.13;;;27.87;;
803;SDS011;25687;49.976;8.240;2023-02-15T05:33:26;57.03;;;25.80;;
803;SDS011;25687;49.976;8.240;2023-02-15T05:35:52;48.33;;;24.90;;
803;SDS011;25687;49.976;8.240;2023-02-15T05:38:17;72.37;;;24.27;;
803;SDS011;25687;49.976;8.240;2023-02-15T05:40:42;55.90;;;24.63;;
803;SDS011;25687;49.976;8.240;2023-02-15T05:43:07;64.87;;;23.70;;
803;SDS011;25687;49.976;8.240;2023-02-15T05:45:33;60.13;;;25.07;;
803;SDS011;25687;49.976;8.240;2023-02-15T05:47:58;54.60;;;24.53;;
803;SDS011;25687;49.976;8.240;2023-02-15T05:50:24;71.83;;;24.83;;
803;SDS011;25687;49.976;8.240;2023-02-15T05:52:49;43.03;;;23.73;;
803;SDS011;25687;49.976;8.240;2023-02-15T05:55:15;41.50;;;21.67;;
803;SDS011;25687;49.976;8.240;2023-02-15T05:57:40;45.77;;;22.53;;
803;SDS011;25687;49.976;8.240;2023-02-15T06:00:05;54.77;;;23.10;;
803;SDS011;25687;49.976;8.240;2023-02-15T06:02:35;64.23;;;22.70;;
803;SDS011;25687;49.976;8.240;2023-02-15T06:05:01;46.37;;;23.27;;
803;SDS011;25687;49.976;8.240;2023-02-15T06:07:26;39.50;;;22.77;;
803;SDS011;25687;49.976;8.240;2023-02-15T06:09:51;54.30;;;23.87;;
803;SDS011;25687;49.976;8.240;2023-02-15T06:12:17;48.80;;;22.50;;
803;SDS011;25687;49.976;8.240;2023-02-15T06:14:42;66.17;;;23.17;;
803;SDS011;25687;49.976;8.240;2023-02-15T06:17:07;83.57;;;23.73;;
803;SDS011;25687;49.976;8.240;2023-02-15T06:19:33;49.93;;;23.00;;
803;SDS011;25687;49.976;8.240;2023-02-15T06:21:58;38.83;;;21.97;;
803;SDS011;25687;49.976;8.240;2023-02-15T06:24:23;38.93;;;22.93;;
803;SDS011;25687;49.976;8.240;2023-02-15T06:26:49;42.77;;;22.90;;
803;SDS011;25687;49.976;8.240;2023-02-15T06:29:14;37.67;;;20.97;;
803;SDS011;25687;49.976;8.240;2023-02-15T06:31:39;40.07;;;23.77;;
803;SDS011;25687;49.976;8.240;2023-02-15T06:34:04;40.87;;;21.37;;
803;SDS011;25687;49.976;8.240;2023-02-15T06:36:30;38.23;;;22.07;;
803;SDS011;25687;49.976;8.240;2023-02-15T06:38:56;31.83;;;20.13;;
803;SDS011;25687;49.976;8.240;2023-02-15T06:41:22;36.37;;;21.47;;
803;SDS011;25687;49.976;8.240;2023-02-15T06:43:47;38.97;;;21.80;;
803;SDS011;25687;49.976;8.240;2023-02-15T06:46:12;34.70;;;19.23;;
803;SDS011;25687;49.976;8.240;2023-02-15T06:48:38;34.27;;;21.43;;
803;SDS011;25687;49.976;8.240;2023-02-15T06:51:03;33.20;;;20.17;;
803;SDS011;25687;49.976;8.240;2023-02-15T06:53:28;37.23;;;20.07;;
803;SDS011;25687;49.976;8.240;2023-02-15T06:56:01;35.03;;;20.33;;
803;SDS011;25687;49.976;8.240;2023-02-15T06:58:34;31.17;;;19.33;;
803;SDS011;25687;49.976;8.240;2023-02-15T07:01:00;30.77;;;18.90;;
803;SDS011;25687;49.976;8.240;2023-02-15T07:03:26;33.17;;;19.90;;
803;SDS011;25687;49.976;8.240;2023-02-15T07:05:55;35.70;;;21.00;;
803;SDS011;25687;49.976;8.240;2023-02-15T07:08:21;35.60;;;20.77;;
803;SDS011;25687;49.976;8.240;2023-02-15T07:10:48;36.70;;;20.73;;
803;SDS011;25687;49.976;8.240;2023-02-15T07:13:14;31.83;;;19.83;;
803;SDS011;25687;49.976;8.240;2023-02-15T07:15:39;33.47;;;19.43;;
803;SDS011;25687;49.976;8.240;2023-02-15T07:18:04;34.47;;;19.23;;
803;SDS011;25687;49.976;8.240;2023-02-15T07:20:30;32.07;;;19.77;;
803;SDS011;25687;49.976;8.240;2023-02-15T07:22:55;32.50;;;18.97;;
803;SDS011;25687;49.976;8.240;2023-02-15T07:25:20;28.27;;;17.00;;
803;SDS011;25687;49.976;8.240;2023-02-15T07:27:46;29.63;;;17.13;;
803;SDS011;25687;49.976;8.240;2023-02-15T07:30:13;30.37;;;18.07;;
803;SDS011;25687;49.976;8.240;2023-02-15T07:32:40;25.20;;;16.20;;
803;SDS011;25687;49.976;8.240;2023-02-15T07:35:26;29.07;;;16.07;;
803;SDS011;25687;49.976;8.240;2023-02-15T07:37:52;29.37;;;17.37;;
803;SDS011;25687;49.976;8.240;2023-02-15T07:40:18;26.30;;;16.17;;
803;SDS011;25687;49.976;8.240;2023-02-15T07:42:43;29.47;;;17.13;;
803;SDS011;25687;49.976;8.240;2023-02-15T07:45:08;24.77;;;16.93;;
803;SDS011;25687;49.976;8.240;2023-02-15T07:47:34;31.27;;;16.87;;
803;SDS011;25687;49.976;8.240;2023-02-15T07:49:59;27.40;;;15.43;;
803;SDS011;25687;49.976;8.240;2023-02-15T07:52:25;27.57;;;16.07;;
803;SDS011;25687;49.976;8.240;2023-02-15T07:54:50;26.17;;;15.80;;
803;SDS011;25687;49.976;8.240;2023-02-15T07:57:16;26.03;;;15.83;;
803;SDS011;25687;49.976;8.240;2023-02-15T07:59:41;27.90;;;17.40;;
803;SDS011;25687;49.976;8.240;2023-02-15T08:02:10;29.67;;;17.80;;
803;SDS011;25687;49.976;8.240;2023-02-15T08:04:36;27.10;;;16.43;;
803;SDS011;25687;49.976;8.240;2023-02-15T08:07:01;27.13;;;16.40;;
803;SDS011;25687;49.976;8.240;2023-02-15T08:09:26;24.30;;;15.70;;
803;SDS011;25687;49.976;8.240;2023-02-15T08:11:51;27.43;;;16.40;;
803;SDS011;25687;49.976;8.240;2023-02-15T08:14:18;25.63;;;15.73;;
803;SDS011;25687;49.976;8.240;2023-02-15T08:16:49;26.60;;;16.20;;
803;SDS011;25687;49.976;8.240;2023-02-15T08:19:25;27.00;;;15.63;;
803;SDS011;25687;49.976;8.240;2023-02-15T08:24:20;25.37;;;15.60;;
803;SDS011;25687;49.976;8.240;2023-02-15T08:26:47;30.07;;;16.50;;
803;SDS011;25687;49.976;8.240;2023-02-15T08:29:16;27.20;;;16.33;;
803;SDS011;25687;49.976;8.240;2023-02-15T08:31:50;22.30;;;14.23;;
803;SDS011;25687;49.976;8.240;2023-02-15T08:34:18;23.43;;;14.87;;
803;SDS011;25687;49.976;8.240;2023-02-15T08:36:44;25.27;;;15.50;;
803;SDS011;25687;49.976;8.240;2023-02-15T08:39:11;30.63;;;15.87;;
803;SDS011;25687;49.976;8.240;2023-02-15T08:41:37;28.57;;;16.57;;
803;SDS011;25687;49.976;8.240;2023-02-15T08:44:04;25.57;;;15.87;;
803;SDS011;25687;49.976;8.240;2023-02-15T08:46:32;27.93;;;16.90;;
803;SDS011;25687;49.976;8.240;2023-02-15T08:48:59;26.80;;;16.77;;
803;SDS011;25687;49.976;8.240;2023-02-15T08:51:25;29.97;;;17.03;;
803;SDS011;25687;49.976;8.240;2023-02-15T08:53:54;27.50;;;16.93;;
803;SDS011;25687;49.976;8.240;2023-02-15T08:56:22;27.17;;;17.40;;
803;SDS011;25687;49.976;8.240;2023-02-15T08:58:50;31.20;;;17.00;;
803;SDS011;25687;49.976;8.240;2023-02-15T09:01:17;24.03;;;16.37;;
803;SDS011;25687;49.976;8.240;2023-02-15T09:03:45;23.67;;;15.70;;
803;SDS011;25687;49.976;8.240;2023-02-15T09:06:11;26.73;;;17.40;;
803;SDS011;25687;49.976;8.240;2023-02-15T09:08:37;27.60;;;17.23;;
803;SDS011;25687;49.976;8.240;2023-02-15T09:11:15;29.07;;;18.57;;
803;SDS011;25687;49.976;8.240;2023-02-15T09:13:47;23.40;;;15.43;;
803;SDS011;25687;49.976;8.240;2023-02-15T09:16:14;26.13;;;16.87;;
803;SDS011;25687;49.976;8.240;2023-02-15T09:18:41;20.53;;;14.73;;
803;SDS011;25687;49.976;8.240;2023-02-15T09:21:08;22.43;;;14.57;;
803;SDS011;25687;49.976;8.240;2023-02-15T09:23:36;22.90;;;15.77;;
803;SDS011;25687;49.976;8.240;2023-02-15T09:26:02;23.47;;;16.27;;
803;SDS011;25687;49.976;8.240;2023-02-15T09:28:28;21.10;;;15.37;;
803;SDS011;25687;49.976;8.240;2023-02-15T09:30:54;24.93;;;15.93;;
803;SDS011;25687;49.976;8.240;2023-02-15T09:33:20;24.27;;;16.83;;
803;SDS011;25687;49.976;8.240;2023-02-15T09:35:46;24.83;;;16.73;;
803;SDS011;25687;49.976;8.240;2023-02-15T09:38:12;30.07;;;18.93;;
803;SDS011;25687;49.976;8.240;2023-02-15T09:40:40;26.80;;;18.23;;
803;SDS011;25687;49.976;8.240;2023-02-15T09:43:17;28.40;;;17.90;;
803;SDS011;25687;49.976;8.240;2023-02-15T09:45:58;36.37;;;18.37;;
803;SDS011;25687;49.976;8.240;2023-02-15T09:48:37;28.90;;;18.53;;
803;SDS011;25687;49.976;8.240;2023-02-15T09:51:23;29.53;;;19.03;;
803;SDS011;25687;49.976;8.240;2023-02-15T09:56:58;27.47;;;18.00;;
803;SDS011;25687;49.976;8.240;2023-02-15T09:59:47;24.83;;;17.03;;
803;SDS011;25687;49.976;8.240;2023-02-15T10:10:51;27.33;;;17.33;;
803;SDS011;25687;49.976;8.240;2023-02-15T10:14:02;23.70;;;15.87;;
803;SDS011;25687;49.976;8.240;2023-02-15T10:19:31;26.47;;;16.87;;
803;SDS011;25687;49.976;8.240;2023-02-15T10:22:16;23.13;;;16.23;;
803;SDS011;25687;49.976;8.240;2023-02-15T10:27:47;26.13;;;16.47;;
803;SDS011;25687;49.976;8.240;2023-02-15T10:30:25;25.27;;;16.83;;
803;SDS011;25687;49.976;8.240;2023-02-15T10:33:00;24.97;;;17.33;;
803;SDS011;25687;49.976;8.240;2023-02-15T10:49:42;23.30;;;16.83;;
803;SDS011;25687;49.976;8.240;2023-02-15T10:58:12;24.97;;;16.87;;
803;SDS011;25687;49.976;8.240;2023-02-15T11:00:45;21.70;;;16.10;;
803;SDS011;25687;49.976;8.240;2023-02-15T11:03:35;25.60;;;18.47;;
803;SDS011;25687;49.976;8.240;2023-02-15T11:06:27;28.70;;;18.13;;
803;SDS011;25687;49.976;8.240;2023-02-15T11:08:54;25.47;;;17.90;;
803;SDS011;25687;49.976;8.240;2023-02-15T11:11:26;23.20;;;16.53;;
803;SDS011;25687;49.976;8.240;2023-02-15T11:13:57;26.33;;;18.03;;
803;SDS011;25687;49.976;8.240;2023-02-15T11:16:37;26.37;;;17.27;;
803;SDS011;25687;49.976;8.240;2023-02-15T11:21:44;20.67;;;16.00;;
803;SDS011;25687;49.976;8.240;2023-02-15T11:24:16;21.67;;;16.83;;
803;SDS011;25687;49.976;8.240;2023-02-15T11:26:48;24.67;;;18.00;;
803;SDS011;25687;49.976;8.240;2023-02-15T11:37:37;25.77;;;18.07;;
803;SDS011;25687;49.976;8.240;2023-02-15T11:40:28;26.83;;;17.57;;
803;SDS011;25687;49.976;8.240;2023-02-15T11:43:01;25.90;;;17.43;;
803;SDS011;25687;49.976;8.240;2023-02-15T11:45:32;24.03;;;17.10;;
803;SDS011;25687;49.976;8.240;2023-02-15T11:47:59;27.53;;;18.37;;
803;SDS011;25687;49.976;8.240;2023-02-15T11:50:27;24.27;;;17.17;;
803;SDS011;25687;49.976;8.240;2023-02-15T11:52:56;23.50;;;16.57;;
803;SDS011;25687;49.976;8.240;2023-02-15T11:55:25;24.90;;;17.07;;
803;SDS011;25687;49.976;8.240;2023-02-15T11:57:58;24.80;;;17.57;;
803;SDS011;25687;49.976;8.240;2023-02-15T12:00:40;23.93;;;16.57;;
803;SDS011;25687;49.976;8.240;2023-02-15T12:03:16;25.57;;;16.77;;
803;SDS011;25687;49.976;8.240;2023-02-15T12:05:48;20.87;;;15.70;;
803;SDS011;25687;49.976;8.240;2023-02-15T12:08:19;18.77;;;14.23;;
803;SDS011;25687;49.976;8.240;2023-02-15T12:10:58;21.43;;;14.87;;
803;SDS011;25687;49.976;8.240;2023-02-15T12:13:30;20.40;;;15.90;;
803;SDS011;25687;49.976;8.240;2023-02-15T12:15:56;21.43;;;16.33;;
803;SDS011;25687;49.976;8.240;2023-02-15T12:18:39;21.07;;;16.03;;
803;SDS011;25687;49.976;8.240;2023-02-15T12:21:12;20.40;;;15.60;;
803;SDS011;25687;49.976;8.240;2023-02-15T12:23:48;21.33;;;15.63;;
803;SDS011;25687;49.976;8.240;2023-02-15T12:26:23;25.33;;;16.83;;
803;SDS011;25687;49.976;8.240;2023-02-15T12:28:50;22.57;;;15.63;;
803;SDS011;25687;49.976;8.240;2023-02-15T12:31:20;21.13;;;15.90;;
803;SDS011;25687;49.976;8.240;2023-02-15T12:33:48;21.90;;;15.80;;
803;SDS011;25687;49.976;8.240;2023-02-15T12:36:19;33.20;;;24.87;;
803;SDS011;25687;49.976;8.240;2023-02-15T12:39:05;23.30;;;16.33;;
803;SDS011;25687;49.976;8.240;2023-02-15T12:41:45;22.50;;;15.87;;
803;SDS011;25687;49.976;8.240;2023-02-15T12:44:23;19.50;;;15.03;;
803;SDS011;25687;49.976;8.240;2023-02-15T12:49:43;20.10;;;15.30;;
803;SDS011;25687;49.976;8.240;2023-02-15T12:54:46;18.23;;;13.60;;
803;SDS011;25687;49.976;8.240;2023-02-15T12:59:55;19.30;;;14.17;;
803;SDS011;25687;49.976;8.240;2023-02-15T13:02:27;18.93;;;15.37;;
803;SDS011;25687;49.976;8.240;2023-02-15T13:07:49;22.40;;;15.90;;
803;SDS011;25687;49.976;8.240;2023-02-15T13:10:23;17.77;;;15.40;;
803;SDS011;25687;49.976;8.240;2023-02-15T13:12:49;18.47;;;15.47;;
803;SDS011;25687;49.976;8.240;2023-02-15T13:15:38;23.13;;;17.87;;
803;SDS011;25687;49.976;8.240;2023-02-15T13:18:10;21.87;;;16.70;;
803;SDS011;25687;49.976;8.240;2023-02-15T13:20:40;26.73;;;17.77;;
803;SDS011;25687;49.976;8.240;2023-02-15T13:23:28;22.53;;;17.20;;
803;SDS011;25687;49.976;8.240;2023-02-15T13:25:58;22.30;;;17.17;;
803;SDS011;25687;49.976;8.240;2023-02-15T13:28:42;21.53;;;17.13;;
803;SDS011;25687;49.976;8.240;2023-02-15T13:31:13;21.43;;;16.80;;
803;SDS011;25687;49.976;8.240;2023-02-15T13:33:41;23.33;;;17.07;;
803;SDS011;25687;49.976;8.240;2023-02-15T13:38:57;24.40;;;17.30;;
803;SDS011;25687;49.976;8.240;2023-02-15T13:41:44;21.17;;;16.87;;
803;SDS011;25687;49.976;8.240;2023-02-15T13:47:06;24.47;;;18.63;;
803;SDS011;25687;49.976;8.240;2023-02-15T13:49:45;25.80;;;19.07;;
803;SDS011;25687;49.976;8.240;2023-02-15T13:57:21;24.70;;;18.40;;
803;SDS011;25687;49.976;8.240;2023-02-15T14:00:13;26.40;;;19.13;;
803;SDS011;25687;49.976;8.240;2023-02-15T14:16:32;26.80;;;19.30;;
803;SDS011;25687;49.976;8.240;2023-02-15T14:25:21;25.03;;;19.67;;
803;SDS011;25687;49.976;8.240;2023-02-15T14:28:04;25.33;;;20.33;;
803;SDS011;25687;49.976;8.240;2023-02-15T14:30:36;27.30;;;20.83;;
803;SDS011;25687;49.976;8.240;2023-02-15T14:33:08;27.40;;;20.53;;
803;SDS011;25687;49.976;8.240;2023-02-15T14:35:38;27.53;;;21.03;;
803;SDS011;25687;49.976;8.240;2023-02-15T14:41:18;30.37;;;21.90;;
803;SDS011;25687;49.976;8.240;2023-02-15T14:49:25;25.40;;;19.93;;
803;SDS011;25687;49.976;8.240;2023-02-15T14:51:59;27.67;;;22.13;;
803;SDS011;25687;49.976;8.240;2023-02-15T14:59:27;31.60;;;23.57;;
803;SDS011;25687;49.976;8.240;2023-02-15T15:02:42;36.37;;;24.47;;
803;SDS011;25687;49.976;8.240;2023-02-15T15:05:14;31.57;;;23.23;;
803;SDS011;25687;49.976;8.240;2023-02-15T15:07:51;33.13;;;24.43;;
803;SDS011;25687;49.976;8.240;2023-02-15T15:12:52;32.83;;;25.50;;
803;SDS011;25687;49.976;8.240;2023-02-15T15:30:57;33.87;;;24.53;;
803;SDS011;25687;49.976;8.240;2023-02-15T15:33:58;37.90;;;25.87;;
803;SDS011;25687;49.976;8.240;2023-02-15T15:37:06;34.50;;;25.63;;
803;SDS011;25687;49.976;8.240;2023-02-15T15:42:18;38.90;;;27.20;;
803;SDS011;25687;49.976;8.240;2023-02-15T15:47:28;35.70;;;26.73;;
803;SDS011;25687;49.976;8.240;2023-02-15T15:50:12;35.70;;;26.37;;
803;SDS011;25687;49.976;8.240;2023-02-15T15:52:40;34.20;;;25.50;;
803;SDS011;25687;49.976;8.240;2023-02-15T15:55:21;45.37;;;27.40;;
803;SDS011;25687;49.976;8.240;2023-02-15T15:57:50;34.20;;;26.53;;
803;SDS011;25687;49.976;8.240;2023-02-15T16:00:40;38.70;;;28.17;;
803;SDS011;25687;49.976;8.240;2023-02-15T16:03:22;39.10;;;27.57;;
803;SDS011;25687;49.976;8.240;2023-02-15T16:05:49;39.77;;;28.63;;
803;SDS011;25687;49.976;8.240;2023-02-15T16:08:33;38.20;;;28.50;;
803;SDS011;25687;49.976;8.240;2023-02-15T16:13:49;37.00;;;27.17;;
803;SDS011;25687;49.976;8.240;2023-02-15T16:16:19;34.07;;;25.53;;
803;SDS011;25687;49.976;8.240;2023-02-15T16:18:47;32.87;;;24.13;;
803;SDS011;25687;49.976;8.240;2023-02-15T16:21:15;36.73;;;25.90;;
803;SDS011;25687;49.976;8.240;2023-02-15T16:26:41;33.23;;;25.13;;
803;SDS011;25687;49.976;8.240;2023-02-15T16:29:17;36.20;;;25.70;;
803;SDS011;25687;49.976;8.240;2023-02-15T16:32:25;32.43;;;24.27;;
803;SDS011;25687;49.976;8.240;2023-02-15T16:37:23;34.63;;;24.83;;
803;SDS011;25687;49.976;8.240;2023-02-15T16:39:52;37.87;;;26.87;;
803;SDS011;25687;49.976;8.240;2023-02-15T16:42:19;36.13;;;25.13;;
803;SDS011;25687;49.976;8.240;2023-02-15T16:44:46;35.17;;;25.27;;
803;SDS011;25687;49.976;8.240;2023-02-15T16:47:23;37.77;;;26.30;;
803;SDS011;25687;49.976;8.240;2023-02-15T16:49:51;35.80;;;25.17;;
803;SDS011;25687;49.976;8.240;2023-02-15T16:52:20;33.40;;;24.83;;
803;SDS011;25687;49.976;8.240;2023-02-15T16:54:50;34.60;;;25.63;;
803;SDS011;25687;49.976;8.240;2023-02-15T16:57:20;37.43;;;26.27;;
803;SDS011;25687;49.976;8.240;2023-02-15T16:59:48;39.20;;;26.73;;
803;SDS011;25687;49.976;8.240;2023-02-15T17:02:17;37.20;;;26.00;;
803;SDS011;25687;49.976;8.240;2023-02-15T17:04:45;36.10;;;25.53;;
803;SDS011;25687;49.976;8.240;2023-02-15T17:07:48;42.63;;;28.47;;
803;SDS011;25687;49.976;8.240;2023-02-15T17:10:35;40.00;;;27.63;;
803;SDS011;25687;49.976;8.240;2023-02-15T17:13:09;39.83;;;26.83;;
803;SDS011;25687;49.976;8.240;2023-02-15T17:15:37;37.30;;;27.10;;
803;SDS011;25687;49.976;8.240;2023-02-15T17:18:22;40.20;;;26.97;;
803;SDS011;25687;49.976;8.240;2023-02-15T17:20:49;41.00;;;27.67;;
803;SDS011;25687;49.976;8.240;2023-02-15T17:26:12;39.53;;;27.47;;
803;SDS011;25687;49.976;8.240;2023-02-15T17:28:57;43.23;;;29.10;;
803;SDS011;25687;49.976;8.240;2023-02-15T17:31:26;42.40;;;27.43;;
803;SDS011;25687;49.976;8.240;2023-02-15T17:33:57;40.37;;;29.43;;
803;SDS011;25687;49.976;8.240;2023-02-15T17:36:24;37.83;;;27.57;;
803;SDS011;25687;49.976;8.240;2023-02-15T17:41:21;43.60;;;29.67;;
803;SDS011;25687;49.976;8.240;2023-02-15T17:43:58;41.20;;;27.57;;
803;SDS011;25687;49.976;8.240;2023-02-15T17:46:23;44.10;;;29.70;;
803;SDS011;25687;49.976;8.240;2023-02-15T17:48:50;43.30;;;29.03;;
803;SDS011;25687;49.976;8.240;2023-02-15T17:51:18;42.47;;;29.10;;
803;SDS011;25687;49.976;8.240;2023-02-15T17:53:44;44.13;;;30.20;;
803;SDS011;25687;49.976;8.240;2023-02-15T17:56:30;41.63;;;29.67;;
803;SDS011;25687;49.976;8.240;2023-02-15T17:58:59;49.07;;;32.63;;